sensor_id;sensor_type;location;lat;lon;timestamp;P1;durP1;ratioP1;P2;durP2;ratioP2
4786;SDS011;62338;48.832;9.422;2023-01-06T00:00:25;2.70;;;1.70;;
4786;SDS011;62338;48.832;9.422;2023-01-06T00:02:27;3.77;;;1.90;;
4786;SDS011;62338;48.832;9.422;2023-01-06T00:04:29;3.30;;;1.40;;
4786;SDS011;62338;48.832;9.422;2023-01-06T00:06:31;3.47;;;2.20;;
4786;SDS011;62338;48.832;9.422;2023-01-06T00:08:33;4.03;;;1.73;;
4786;SDS011;62338;48.832;9.422;2023-01-06T00:10:35;3.80;;;1.80;;
4786;SDS011;62338;48.832;9.422;2023-01-06T00:12:38;5.50;;;1.87;;
4786;SDS011;62338;48.832;9.422;2023-01-06T00:14:40;2.50;;;1.67;;
4786;SDS011;62338;48.832;9.422;2023-01-06T00:16:44;3.10;;;1.40;;
4786;SDS011;62338;48.832;9.422;2023-01-06T00:18:46;3.10;;;1.70;;
4786;SDS011;62338;48.832;9.422;2023-01-06T00:20:48;3.40;;;1.73;;
4786;SDS011;62338;48.832;9.422;2023-01-06T00:22:50;4.37;;;1.90;;
4786;SDS011;62338;48.832;9.422;2023-01-06T00:24:52;2.30;;;1.57;;
4786;SDS011;62338;48.832;9.422;2023-01-06T00:26:53;2.97;;;1.77;;
4786;SDS011;62338;48.832;9.422;2023-01-06T00:28:55;3.10;;;1.67;;
4786;SDS011;62338;48.832;9.422;2023-01-06T00:30:57;2.70;;;1.70;;
4786;SDS011;62338;48.832;9.422;2023-01-06T00:32:59;3.47;;;1.80;;
4786;SDS011;62338;48.832;9.422;2023-01-06T00:35:02;2.87;;;1.60;;
4786;SDS011;62338;48.832;9.422;2023-01-06T00:37:04;5.00;;;1.73;;
4786;SDS011;62338;48.832;9.422;2023-01-06T00:39:05;2.53;;;1.60;;
4786;SDS011;62338;48.832;9.422;2023-01-06T00:41:09;2.20;;;1.33;;
4786;SDS011;62338;48.832;9.422;2023-01-06T00:43:31;2.77;;;1.70;;
4786;SDS011;62338;48.832;9.422;2023-01-06T00:45:33;2.70;;;1.80;;
4786;SDS011;62338;48.832;9.422;2023-01-06T00:47:35;3.23;;;1.60;;
4786;SDS011;62338;48.832;9.422;2023-01-06T00:49:37;3.10;;;1.70;;
4786;SDS011;62338;48.832;9.422;2023-01-06T00:51:39;4.63;;;1.70;;
4786;SDS011;62338;48.832;9.422;2023-01-06T00:53:41;3.13;;;1.50;;
4786;SDS011;62338;48.832;9.422;2023-01-06T00:55:43;3.00;;;1.47;;
4786;SDS011;62338;48.832;9.422;2023-01-06T00:57:44;2.27;;;1.40;;
4786;SDS011;62338;48.832;9.422;2023-01-06T00:59:47;5.60;;;1.87;;
4786;SDS011;62338;48.832;9.422;2023-01-06T01:01:49;3.83;;;1.50;;
4786;SDS011;62338;48.832;9.422;2023-01-06T01:03:52;2.73;;;1.63;;
4786;SDS011;62338;48.832;9.422;2023-01-06T01:05:57;3.87;;;1.83;;
4786;SDS011;62338;48.832;9.422;2023-01-06T01:08:03;3.23;;;1.80;;
4786;SDS011;62338;48.832;9.422;2023-01-06T01:10:05;3.70;;;1.73;;
4786;SDS011;62338;48.832;9.422;2023-01-06T01:12:09;4.90;;;1.40;;
4786;SDS011;62338;48.832;9.422;2023-01-06T01:14:15;5.50;;;1.73;;
4786;SDS011;62338;48.832;9.422;2023-01-06T01:16:18;2.70;;;1.50;;
4786;SDS011;62338;48.832;9.422;2023-01-06T01:18:20;4.93;;;1.40;;
4786;SDS011;62338;48.832;9.422;2023-01-06T01:20:22;3.30;;;1.53;;
4786;SDS011;62338;48.832;9.422;2023-01-06T01:22:24;2.90;;;2.17;;
4786;SDS011;62338;48.832;9.422;2023-01-06T01:24:28;4.27;;;1.90;;
4786;SDS011;62338;48.832;9.422;2023-01-06T01:26:29;3.77;;;1.67;;
4786;SDS011;62338;48.832;9.422;2023-01-06T01:28:31;3.80;;;1.57;;
4786;SDS011;62338;48.832;9.422;2023-01-06T01:30:33;5.03;;;1.90;;
4786;SDS011;62338;48.832;9.422;2023-01-06T01:32:35;2.70;;;1.50;;
4786;SDS011;62338;48.832;9.422;2023-01-06T01:34:37;3.87;;;1.73;;
4786;SDS011;62338;48.832;9.422;2023-01-06T01:36:42;2.97;;;1.80;;
4786;SDS011;62338;48.832;9.422;2023-01-06T01:38:46;2.30;;;1.40;;
4786;SDS011;62338;48.832;9.422;2023-01-06T01:40:48;3.00;;;1.60;;
4786;SDS011;62338;48.832;9.422;2023-01-06T01:42:50;2.17;;;1.40;;
4786;SDS011;62338;48.832;9.422;2023-01-06T01:47:03;2.57;;;1.60;;
4786;SDS011;62338;48.832;9.422;2023-01-06T01:49:07;4.53;;;1.67;;
4786;SDS011;62338;48.832;9.422;2023-01-06T01:51:15;3.40;;;1.50;;
4786;SDS011;62338;48.832;9.422;2023-01-06T01:53:31;4.30;;;1.80;;
4786;SDS011;62338;48.832;9.422;2023-01-06T01:55:36;3.83;;;1.97;;
4786;SDS011;62338;48.832;9.422;2023-01-06T01:57:45;3.30;;;1.77;;
4786;SDS011;62338;48.832;9.422;2023-01-06T01:59:54;4.20;;;1.80;;
4786;SDS011;62338;48.832;9.422;2023-01-06T02:01:57;4.63;;;2.07;;
4786;SDS011;62338;48.832;9.422;2023-01-06T02:03:59;3.57;;;2.00;;
4786;SDS011;62338;48.832;9.422;2023-01-06T02:06:03;5.57;;;1.80;;
4786;SDS011;62338;48.832;9.422;2023-01-06T02:08:17;3.23;;;1.70;;
4786;SDS011;62338;48.832;9.422;2023-01-06T02:10:22;3.53;;;2.13;;
4786;SDS011;62338;48.832;9.422;2023-01-06T02:12:25;3.80;;;2.10;;
4786;SDS011;62338;48.832;9.422;2023-01-06T02:14:27;4.90;;;1.73;;
4786;SDS011;62338;48.832;9.422;2023-01-06T02:25:25;5.60;;;2.17;;
4786;SDS011;62338;48.832;9.422;2023-01-06T02:30:04;4.40;;;2.17;;
4786;SDS011;62338;48.832;9.422;2023-01-06T02:32:35;3.37;;;2.23;;
4786;SDS011;62338;48.832;9.422;2023-01-06T02:34:42;4.87;;;2.10;;
4786;SDS011;62338;48.832;9.422;2023-01-06T02:39:15;3.70;;;2.23;;
4786;SDS011;62338;48.832;9.422;2023-01-06T02:44:06;5.00;;;2.50;;
4786;SDS011;62338;48.832;9.422;2023-01-06T02:50:56;3.80;;;2.30;;
4786;SDS011;62338;48.832;9.422;2023-01-06T02:55:25;6.87;;;2.23;;
4786;SDS011;62338;48.832;9.422;2023-01-06T02:57:36;4.10;;;2.03;;
4786;SDS011;62338;48.832;9.422;2023-01-06T02:59:48;3.80;;;2.20;;
4786;SDS011;62338;48.832;9.422;2023-01-06T03:02:03;3.73;;;2.00;;
4786;SDS011;62338;48.832;9.422;2023-01-06T03:04:14;2.93;;;1.83;;
4786;SDS011;62338;48.832;9.422;2023-01-06T03:06:29;2.37;;;1.70;;
4786;SDS011;62338;48.832;9.422;2023-01-06T03:08:33;2.70;;;1.63;;
4786;SDS011;62338;48.832;9.422;2023-01-06T03:10:36;2.57;;;1.80;;
4786;SDS011;62338;48.832;9.422;2023-01-06T03:12:43;7.03;;;2.13;;
4786;SDS011;62338;48.832;9.422;2023-01-06T03:15:06;3.30;;;1.63;;
4786;SDS011;62338;48.832;9.422;2023-01-06T03:17:09;2.50;;;1.90;;
4786;SDS011;62338;48.832;9.422;2023-01-06T03:19:12;3.20;;;2.00;;
4786;SDS011;62338;48.832;9.422;2023-01-06T03:21:15;6.60;;;2.00;;
4786;SDS011;62338;48.832;9.422;2023-01-06T03:23:20;3.40;;;2.20;;
4786;SDS011;62338;48.832;9.422;2023-01-06T03:25:22;2.83;;;1.87;;
4786;SDS011;62338;48.832;9.422;2023-01-06T03:27:24;2.57;;;1.70;;
4786;SDS011;62338;48.832;9.422;2023-01-06T03:29:27;3.70;;;1.50;;
4786;SDS011;62338;48.832;9.422;2023-01-06T03:31:32;2.43;;;1.50;;
4786;SDS011;62338;48.832;9.422;2023-01-06T03:33:43;3.80;;;1.90;;
4786;SDS011;62338;48.832;9.422;2023-01-06T03:47:25;3.07;;;1.80;;
4786;SDS011;62338;48.832;9.422;2023-01-06T03:49:40;2.80;;;1.43;;
4786;SDS011;62338;48.832;9.422;2023-01-06T03:51:58;2.40;;;1.57;;
4786;SDS011;62338;48.832;9.422;2023-01-06T03:56:36;2.70;;;1.60;;
4786;SDS011;62338;48.832;9.422;2023-01-06T03:58:42;2.50;;;1.43;;
4786;SDS011;62338;48.832;9.422;2023-01-06T04:00:46;2.20;;;1.40;;
4786;SDS011;62338;48.832;9.422;2023-01-06T04:02:49;2.77;;;1.70;;
4786;SDS011;62338;48.832;9.422;2023-01-06T04:05:07;3.80;;;1.50;;
4786;SDS011;62338;48.832;9.422;2023-01-06T04:07:18;2.97;;;1.70;;
4786;SDS011;62338;48.832;9.422;2023-01-06T04:09:19;3.70;;;1.63;;
4786;SDS011;62338;48.832;9.422;2023-01-06T04:11:21;2.67;;;1.57;;
4786;SDS011;62338;48.832;9.422;2023-01-06T04:13:42;4.57;;;2.03;;
4786;SDS011;62338;48.832;9.422;2023-01-06T04:15:44;2.10;;;1.50;;
4786;SDS011;62338;48.832;9.422;2023-01-06T04:17:47;3.47;;;2.00;;
4786;SDS011;62338;48.832;9.422;2023-01-06T04:19:49;2.50;;;1.70;;
4786;SDS011;62338;48.832;9.422;2023-01-06T04:21:51;3.33;;;1.83;;
4786;SDS011;62338;48.832;9.422;2023-01-06T04:23:53;2.87;;;1.63;;
4786;SDS011;62338;48.832;9.422;2023-01-06T04:25:54;3.90;;;1.43;;
4786;SDS011;62338;48.832;9.422;2023-01-06T04:27:56;2.83;;;1.70;;
4786;SDS011;62338;48.832;9.422;2023-01-06T04:29:58;3.93;;;1.90;;
4786;SDS011;62338;48.832;9.422;2023-01-06T04:32:01;5.00;;;1.93;;
4786;SDS011;62338;48.832;9.422;2023-01-06T04:34:03;7.10;;;1.80;;
4786;SDS011;62338;48.832;9.422;2023-01-06T04:36:05;4.23;;;2.00;;
4786;SDS011;62338;48.832;9.422;2023-01-06T04:38:07;2.47;;;1.70;;
4786;SDS011;62338;48.832;9.422;2023-01-06T04:40:10;3.50;;;2.00;;
4786;SDS011;62338;48.832;9.422;2023-01-06T04:42:12;2.77;;;1.80;;
4786;SDS011;62338;48.832;9.422;2023-01-06T04:44:14;4.20;;;1.80;;
4786;SDS011;62338;48.832;9.422;2023-01-06T04:46:15;5.87;;;1.90;;
4786;SDS011;62338;48.832;9.422;2023-01-06T04:48:17;3.03;;;2.10;;
4786;SDS011;62338;48.832;9.422;2023-01-06T04:50:19;3.07;;;2.00;;
4786;SDS011;62338;48.832;9.422;2023-01-06T04:52:21;2.77;;;1.70;;
4786;SDS011;62338;48.832;9.422;2023-01-06T04:54:23;3.90;;;1.60;;
4786;SDS011;62338;48.832;9.422;2023-01-06T04:56:24;3.73;;;1.90;;
4786;SDS011;62338;48.832;9.422;2023-01-06T04:58:27;2.23;;;1.60;;
4786;SDS011;62338;48.832;9.422;2023-01-06T05:00:29;3.33;;;1.97;;
4786;SDS011;62338;48.832;9.422;2023-01-06T05:02:30;3.33;;;2.00;;
4786;SDS011;62338;48.832;9.422;2023-01-06T05:04:32;2.73;;;2.07;;
4786;SDS011;62338;48.832;9.422;2023-01-06T05:06:47;2.70;;;1.90;;
4786;SDS011;62338;48.832;9.422;2023-01-06T05:08:50;3.00;;;2.07;;
4786;SDS011;62338;48.832;9.422;2023-01-06T05:10:57;2.87;;;1.60;;
4786;SDS011;62338;48.832;9.422;2023-01-06T05:13:19;4.13;;;2.17;;
4786;SDS011;62338;48.832;9.422;2023-01-06T05:15:21;6.30;;;2.17;;
4786;SDS011;62338;48.832;9.422;2023-01-06T05:17:23;3.70;;;2.50;;
4786;SDS011;62338;48.832;9.422;2023-01-06T05:19:25;3.27;;;2.00;;
4786;SDS011;62338;48.832;9.422;2023-01-06T05:21:28;3.90;;;2.30;;
4786;SDS011;62338;48.832;9.422;2023-01-06T05:23:33;2.87;;;2.03;;
4786;SDS011;62338;48.832;9.422;2023-01-06T05:25:36;3.40;;;2.03;;
4786;SDS011;62338;48.832;9.422;2023-01-06T05:27:37;4.27;;;2.40;;
4786;SDS011;62338;48.832;9.422;2023-01-06T05:29:39;3.43;;;1.90;;
4786;SDS011;62338;48.832;9.422;2023-01-06T05:31:41;4.53;;;2.07;;
4786;SDS011;62338;48.832;9.422;2023-01-06T05:33:43;4.10;;;1.90;;
4786;SDS011;62338;48.832;9.422;2023-01-06T05:35:45;5.30;;;2.50;;
4786;SDS011;62338;48.832;9.422;2023-01-06T05:37:47;2.77;;;1.90;;
4786;SDS011;62338;48.832;9.422;2023-01-06T05:39:49;3.60;;;1.97;;
4786;SDS011;62338;48.832;9.422;2023-01-06T05:41:50;3.00;;;2.10;;
4786;SDS011;62338;48.832;9.422;2023-01-06T05:43:52;4.20;;;2.33;;
4786;SDS011;62338;48.832;9.422;2023-01-06T05:45:54;2.33;;;1.60;;
4786;SDS011;62338;48.832;9.422;2023-01-06T05:47:56;3.83;;;2.17;;
4786;SDS011;62338;48.832;9.422;2023-01-06T05:49:59;3.20;;;2.20;;
4786;SDS011;62338;48.832;9.422;2023-01-06T05:52:01;3.37;;;2.23;;
4786;SDS011;62338;48.832;9.422;2023-01-06T05:54:05;3.20;;;1.80;;
4786;SDS011;62338;48.832;9.422;2023-01-06T05:56:09;3.30;;;2.27;;
4786;SDS011;62338;48.832;9.422;2023-01-06T05:58:13;3.80;;;2.40;;
4786;SDS011;62338;48.832;9.422;2023-01-06T06:00:14;3.30;;;2.30;;
4786;SDS011;62338;48.832;9.422;2023-01-06T06:02:16;3.90;;;2.50;;
4786;SDS011;62338;48.832;9.422;2023-01-06T06:04:18;5.50;;;1.87;;
4786;SDS011;62338;48.832;9.422;2023-01-06T06:06:20;3.40;;;1.67;;
4786;SDS011;62338;48.832;9.422;2023-01-06T06:08:23;3.33;;;2.10;;
4786;SDS011;62338;48.832;9.422;2023-01-06T06:10:25;3.00;;;1.70;;
4786;SDS011;62338;48.832;9.422;2023-01-06T06:12:27;2.67;;;1.80;;
4786;SDS011;62338;48.832;9.422;2023-01-06T06:14:29;3.90;;;2.13;;
4786;SDS011;62338;48.832;9.422;2023-01-06T06:16:30;4.03;;;2.33;;
4786;SDS011;62338;48.832;9.422;2023-01-06T06:18:32;2.93;;;1.97;;
4786;SDS011;62338;48.832;9.422;2023-01-06T06:20:35;3.43;;;2.10;;
4786;SDS011;62338;48.832;9.422;2023-01-06T06:22:36;3.97;;;1.80;;
4786;SDS011;62338;48.832;9.422;2023-01-06T06:24:38;2.50;;;1.70;;
4786;SDS011;62338;48.832;9.422;2023-01-06T06:26:40;2.37;;;1.40;;
4786;SDS011;62338;48.832;9.422;2023-01-06T06:28:42;2.90;;;1.50;;
4786;SDS011;62338;48.832;9.422;2023-01-06T06:30:43;2.43;;;1.67;;
4786;SDS011;62338;48.832;9.422;2023-01-06T06:32:45;2.23;;;1.70;;
4786;SDS011;62338;48.832;9.422;2023-01-06T06:34:47;2.60;;;1.60;;
4786;SDS011;62338;48.832;9.422;2023-01-06T06:36:49;3.07;;;1.70;;
4786;SDS011;62338;48.832;9.422;2023-01-06T06:38:51;2.30;;;1.60;;
4786;SDS011;62338;48.832;9.422;2023-01-06T06:40:54;2.93;;;1.80;;
4786;SDS011;62338;48.832;9.422;2023-01-06T06:42:55;2.87;;;1.90;;
4786;SDS011;62338;48.832;9.422;2023-01-06T06:44:57;4.23;;;2.10;;
4786;SDS011;62338;48.832;9.422;2023-01-06T06:46:59;2.50;;;1.63;;
4786;SDS011;62338;48.832;9.422;2023-01-06T06:49:01;2.87;;;1.60;;
4786;SDS011;62338;48.832;9.422;2023-01-06T06:51:06;2.33;;;1.50;;
4786;SDS011;62338;48.832;9.422;2023-01-06T06:53:19;2.30;;;1.63;;
4786;SDS011;62338;48.832;9.422;2023-01-06T06:55:21;2.47;;;1.40;;
4786;SDS011;62338;48.832;9.422;2023-01-06T06:57:22;2.90;;;1.57;;
4786;SDS011;62338;48.832;9.422;2023-01-06T06:59:24;2.20;;;1.40;;
4786;SDS011;62338;48.832;9.422;2023-01-06T07:01:26;2.40;;;1.70;;
4786;SDS011;62338;48.832;9.422;2023-01-06T07:03:28;3.40;;;1.83;;
4786;SDS011;62338;48.832;9.422;2023-01-06T07:05:29;2.40;;;1.50;;
4786;SDS011;62338;48.832;9.422;2023-01-06T07:07:31;3.13;;;1.70;;
4786;SDS011;62338;48.832;9.422;2023-01-06T07:09:33;3.10;;;1.60;;
4786;SDS011;62338;48.832;9.422;2023-01-06T07:11:35;2.90;;;1.40;;
4786;SDS011;62338;48.832;9.422;2023-01-06T07:13:37;2.23;;;1.60;;
4786;SDS011;62338;48.832;9.422;2023-01-06T07:15:38;2.50;;;1.60;;
4786;SDS011;62338;48.832;9.422;2023-01-06T07:17:40;3.03;;;1.70;;
4786;SDS011;62338;48.832;9.422;2023-01-06T07:19:42;4.10;;;1.73;;
4786;SDS011;62338;48.832;9.422;2023-01-06T07:21:46;3.03;;;1.80;;
4786;SDS011;62338;48.832;9.422;2023-01-06T07:23:48;2.60;;;1.80;;
4786;SDS011;62338;48.832;9.422;2023-01-06T07:25:51;3.33;;;1.90;;
4786;SDS011;62338;48.832;9.422;2023-01-06T07:27:58;3.43;;;1.63;;
4786;SDS011;62338;48.832;9.422;2023-01-06T07:30:05;2.53;;;1.73;;
4786;SDS011;62338;48.832;9.422;2023-01-06T07:32:07;2.57;;;1.60;;
4786;SDS011;62338;48.832;9.422;2023-01-06T07:34:10;2.10;;;1.47;;
4786;SDS011;62338;48.832;9.422;2023-01-06T07:36:12;4.23;;;1.30;;
4786;SDS011;62338;48.832;9.422;2023-01-06T07:38:14;2.10;;;1.40;;
4786;SDS011;62338;48.832;9.422;2023-01-06T07:40:15;2.70;;;1.53;;
4786;SDS011;62338;48.832;9.422;2023-01-06T07:42:18;3.13;;;1.53;;
4786;SDS011;62338;48.832;9.422;2023-01-06T07:44:20;2.80;;;1.57;;
4786;SDS011;62338;48.832;9.422;2023-01-06T07:46:22;2.33;;;1.50;;
4786;SDS011;62338;48.832;9.422;2023-01-06T07:48:24;4.63;;;2.10;;
4786;SDS011;62338;48.832;9.422;2023-01-06T07:50:26;2.77;;;1.80;;
4786;SDS011;62338;48.832;9.422;2023-01-06T07:52:29;2.57;;;1.40;;
4786;SDS011;62338;48.832;9.422;2023-01-06T07:54:30;2.67;;;1.67;;
4786;SDS011;62338;48.832;9.422;2023-01-06T07:56:32;3.20;;;1.70;;
4786;SDS011;62338;48.832;9.422;2023-01-06T07:58:34;2.87;;;2.00;;
4786;SDS011;62338;48.832;9.422;2023-01-06T08:00:36;4.07;;;2.40;;
4786;SDS011;62338;48.832;9.422;2023-01-06T08:02:38;3.47;;;2.30;;
4786;SDS011;62338;48.832;9.422;2023-01-06T08:04:40;3.10;;;1.90;;
4786;SDS011;62338;48.832;9.422;2023-01-06T08:06:42;2.90;;;2.13;;
4786;SDS011;62338;48.832;9.422;2023-01-06T08:08:44;3.00;;;2.00;;
4786;SDS011;62338;48.832;9.422;2023-01-06T08:10:45;3.47;;;2.50;;
4786;SDS011;62338;48.832;9.422;2023-01-06T08:12:47;4.23;;;2.43;;
4786;SDS011;62338;48.832;9.422;2023-01-06T08:14:49;2.67;;;2.00;;
4786;SDS011;62338;48.832;9.422;2023-01-06T08:16:51;2.50;;;1.70;;
4786;SDS011;62338;48.832;9.422;2023-01-06T08:18:52;2.30;;;1.73;;
4786;SDS011;62338;48.832;9.422;2023-01-06T08:21:01;2.70;;;2.10;;
4786;SDS011;62338;48.832;9.422;2023-01-06T08:23:03;3.27;;;2.77;;
4786;SDS011;62338;48.832;9.422;2023-01-06T08:25:05;2.40;;;2.00;;
4786;SDS011;62338;48.832;9.422;2023-01-06T08:27:08;3.10;;;2.47;;
4786;SDS011;62338;48.832;9.422;2023-01-06T08:29:09;4.43;;;2.67;;
4786;SDS011;62338;48.832;9.422;2023-01-06T08:31:12;3.10;;;2.37;;
4786;SDS011;62338;48.832;9.422;2023-01-06T08:33:16;4.93;;;2.27;;
4786;SDS011;62338;48.832;9.422;2023-01-06T08:35:19;2.97;;;2.20;;
4786;SDS011;62338;48.832;9.422;2023-01-06T08:37:20;3.77;;;2.53;;
4786;SDS011;62338;48.832;9.422;2023-01-06T08:39:22;2.77;;;2.00;;
4786;SDS011;62338;48.832;9.422;2023-01-06T08:41:24;3.03;;;1.97;;
4786;SDS011;62338;48.832;9.422;2023-01-06T08:43:26;2.60;;;1.60;;
4786;SDS011;62338;48.832;9.422;2023-01-06T08:45:29;3.40;;;1.73;;
4786;SDS011;62338;48.832;9.422;2023-01-06T08:47:31;4.20;;;2.20;;
4786;SDS011;62338;48.832;9.422;2023-01-06T08:49:33;2.60;;;1.70;;
4786;SDS011;62338;48.832;9.422;2023-01-06T08:51:35;3.00;;;1.60;;
4786;SDS011;62338;48.832;9.422;2023-01-06T08:53:37;3.10;;;1.67;;
4786;SDS011;62338;48.832;9.422;2023-01-06T08:55:40;7.10;;;3.90;;
4786;SDS011;62338;48.832;9.422;2023-01-06T08:57:42;3.53;;;1.70;;
4786;SDS011;62338;48.832;9.422;2023-01-06T08:59:44;2.53;;;1.70;;
4786;SDS011;62338;48.832;9.422;2023-01-06T09:01:45;3.07;;;1.57;;
4786;SDS011;62338;48.832;9.422;2023-01-06T09:03:47;2.80;;;1.77;;
4786;SDS011;62338;48.832;9.422;2023-01-06T09:05:56;3.50;;;2.13;;
4786;SDS011;62338;48.832;9.422;2023-01-06T09:07:58;2.87;;;1.60;;
4786;SDS011;62338;48.832;9.422;2023-01-06T09:10:00;4.20;;;2.10;;
4786;SDS011;62338;48.832;9.422;2023-01-06T09:12:02;2.47;;;1.40;;
4786;SDS011;62338;48.832;9.422;2023-01-06T09:14:03;2.23;;;1.33;;
4786;SDS011;62338;48.832;9.422;2023-01-06T09:16:06;2.67;;;1.60;;
4786;SDS011;62338;48.832;9.422;2023-01-06T09:18:08;2.30;;;1.47;;
4786;SDS011;62338;48.832;9.422;2023-01-06T09:20:10;3.10;;;1.90;;
4786;SDS011;62338;48.832;9.422;2023-01-06T09:22:12;2.40;;;1.40;;
4786;SDS011;62338;48.832;9.422;2023-01-06T09:24:14;1.97;;;1.23;;
4786;SDS011;62338;48.832;9.422;2023-01-06T09:26:17;2.70;;;1.10;;
4786;SDS011;62338;48.832;9.422;2023-01-06T09:28:19;3.33;;;1.30;;
4786;SDS011;62338;48.832;9.422;2023-01-06T09:30:21;2.00;;;1.20;;
4786;SDS011;62338;48.832;9.422;2023-01-06T09:32:25;3.70;;;1.30;;
4786;SDS011;62338;48.832;9.422;2023-01-06T09:34:27;3.73;;;1.30;;
4786;SDS011;62338;48.832;9.422;2023-01-06T09:36:29;2.57;;;1.37;;
4786;SDS011;62338;48.832;9.422;2023-01-06T09:38:32;3.40;;;1.40;;
4786;SDS011;62338;48.832;9.422;2023-01-06T09:40:39;1.67;;;0.90;;
4786;SDS011;62338;48.832;9.422;2023-01-06T09:45:07;2.40;;;1.20;;
4786;SDS011;62338;48.832;9.422;2023-01-06T09:47:19;1.67;;;1.00;;
4786;SDS011;62338;48.832;9.422;2023-01-06T09:49:45;1.90;;;1.03;;
4786;SDS011;62338;48.832;9.422;2023-01-06T09:52:02;2.00;;;1.00;;
4786;SDS011;62338;48.832;9.422;2023-01-06T09:54:14;9.40;;;1.27;;
4786;SDS011;62338;48.832;9.422;2023-01-06T09:56:41;2.33;;;1.40;;
4786;SDS011;62338;48.832;9.422;2023-01-06T09:58:49;1.90;;;1.00;;
4786;SDS011;62338;48.832;9.422;2023-01-06T10:01:00;1.57;;;0.93;;
4786;SDS011;62338;48.832;9.422;2023-01-06T10:03:14;2.73;;;1.07;;
4786;SDS011;62338;48.832;9.422;2023-01-06T10:05:19;1.70;;;0.90;;
4786;SDS011;62338;48.832;9.422;2023-01-06T10:07:31;2.40;;;1.23;;
4786;SDS011;62338;48.832;9.422;2023-01-06T10:09:55;1.50;;;0.80;;
4786;SDS011;62338;48.832;9.422;2023-01-06T10:19:58;1.70;;;1.00;;
4786;SDS011;62338;48.832;9.422;2023-01-06T10:27:27;2.63;;;1.20;;
4786;SDS011;62338;48.832;9.422;2023-01-06T10:29:34;1.90;;;1.00;;
4786;SDS011;62338;48.832;9.422;2023-01-06T10:31:38;2.80;;;1.30;;
4786;SDS011;62338;48.832;9.422;2023-01-06T10:33:47;2.10;;;1.30;;
4786;SDS011;62338;48.832;9.422;2023-01-06T10:35:55;1.80;;;1.10;;
4786;SDS011;62338;48.832;9.422;2023-01-06T10:37:58;2.57;;;1.30;;
4786;SDS011;62338;48.832;9.422;2023-01-06T10:40:21;2.20;;;1.10;;
4786;SDS011;62338;48.832;9.422;2023-01-06T10:42:33;2.23;;;1.40;;
4786;SDS011;62338;48.832;9.422;2023-01-06T10:44:57;3.20;;;1.30;;
4786;SDS011;62338;48.832;9.422;2023-01-06T10:46:59;2.13;;;1.20;;
4786;SDS011;62338;48.832;9.422;2023-01-06T10:49:01;2.90;;;1.20;;
4786;SDS011;62338;48.832;9.422;2023-01-06T10:51:18;3.43;;;1.20;;
4786;SDS011;62338;48.832;9.422;2023-01-06T10:53:32;2.47;;;1.30;;
4786;SDS011;62338;48.832;9.422;2023-01-06T10:55:48;2.53;;;1.40;;
4786;SDS011;62338;48.832;9.422;2023-01-06T10:58:04;4.23;;;1.40;;
4786;SDS011;62338;48.832;9.422;2023-01-06T11:00:17;2.20;;;1.07;;
4786;SDS011;62338;48.832;9.422;2023-01-06T11:02:22;2.63;;;1.23;;
4786;SDS011;62338;48.832;9.422;2023-01-06T11:04:25;1.93;;;0.90;;
4786;SDS011;62338;48.832;9.422;2023-01-06T11:06:28;2.00;;;1.00;;
4786;SDS011;62338;48.832;9.422;2023-01-06T11:08:31;2.13;;;1.07;;
4786;SDS011;62338;48.832;9.422;2023-01-06T11:10:43;2.40;;;1.00;;
4786;SDS011;62338;48.832;9.422;2023-01-06T11:12:53;1.97;;;0.90;;
4786;SDS011;62338;48.832;9.422;2023-01-06T11:15:06;2.13;;;1.00;;
4786;SDS011;62338;48.832;9.422;2023-01-06T11:17:12;1.70;;;0.93;;
4786;SDS011;62338;48.832;9.422;2023-01-06T11:19:21;2.00;;;0.80;;
4786;SDS011;62338;48.832;9.422;2023-01-06T11:23:44;1.63;;;0.80;;
4786;SDS011;62338;48.832;9.422;2023-01-06T11:25:58;1.77;;;0.80;;
4786;SDS011;62338;48.832;9.422;2023-01-06T11:28:19;3.97;;;1.00;;
4786;SDS011;62338;48.832;9.422;2023-01-06T11:30:25;1.60;;;0.80;;
4786;SDS011;62338;48.832;9.422;2023-01-06T11:32:28;1.60;;;0.80;;
4786;SDS011;62338;48.832;9.422;2023-01-06T11:34:30;2.40;;;0.90;;
4786;SDS011;62338;48.832;9.422;2023-01-06T11:36:33;1.80;;;0.93;;
4786;SDS011;62338;48.832;9.422;2023-01-06T11:38:42;2.90;;;0.80;;
4786;SDS011;62338;48.832;9.422;2023-01-06T11:40:47;4.00;;;1.00;;
4786;SDS011;62338;48.832;9.422;2023-01-06T11:42:51;1.57;;;0.80;;
4786;SDS011;62338;48.832;9.422;2023-01-06T11:44:56;2.50;;;1.13;;
4786;SDS011;62338;48.832;9.422;2023-01-06T11:46:59;1.70;;;0.90;;
4786;SDS011;62338;48.832;9.422;2023-01-06T11:49:06;1.80;;;1.00;;
4786;SDS011;62338;48.832;9.422;2023-01-06T11:51:16;2.33;;;0.93;;
4786;SDS011;62338;48.832;9.422;2023-01-06T11:53:32;2.73;;;1.33;;
4786;SDS011;62338;48.832;9.422;2023-01-06T11:55:34;2.20;;;1.10;;
4786;SDS011;62338;48.832;9.422;2023-01-06T12:02:10;2.57;;;1.60;;
4786;SDS011;62338;48.832;9.422;2023-01-06T12:04:23;2.60;;;1.50;;
4786;SDS011;62338;48.832;9.422;2023-01-06T12:06:33;3.33;;;1.43;;
4786;SDS011;62338;48.832;9.422;2023-01-06T12:11:26;2.20;;;1.37;;
4786;SDS011;62338;48.832;9.422;2023-01-06T12:13:43;6.13;;;1.50;;
4786;SDS011;62338;48.832;9.422;2023-01-06T12:16:06;5.60;;;1.40;;
4786;SDS011;62338;48.832;9.422;2023-01-06T12:18:19;2.47;;;1.43;;
4786;SDS011;62338;48.832;9.422;2023-01-06T12:20:27;2.57;;;1.67;;
4786;SDS011;62338;48.832;9.422;2023-01-06T12:25:50;2.23;;;1.40;;
4786;SDS011;62338;48.832;9.422;2023-01-06T12:28:05;3.43;;;1.57;;
4786;SDS011;62338;48.832;9.422;2023-01-06T12:30:28;2.50;;;1.63;;
4786;SDS011;62338;48.832;9.422;2023-01-06T12:32:40;3.13;;;1.40;;
4786;SDS011;62338;48.832;9.422;2023-01-06T12:34:45;2.87;;;1.50;;
4786;SDS011;62338;48.832;9.422;2023-01-06T12:39:12;2.77;;;1.80;;
4786;SDS011;62338;48.832;9.422;2023-01-06T12:41:31;2.50;;;1.73;;
4786;SDS011;62338;48.832;9.422;2023-01-06T12:43:39;6.60;;;1.90;;
4786;SDS011;62338;48.832;9.422;2023-01-06T12:45:58;6.13;;;2.70;;
4786;SDS011;62338;48.832;9.422;2023-01-06T12:48:15;3.67;;;2.20;;
4786;SDS011;62338;48.832;9.422;2023-01-06T12:52:40;3.43;;;1.73;;
4786;SDS011;62338;48.832;9.422;2023-01-06T12:54:52;5.83;;;2.47;;
4786;SDS011;62338;48.832;9.422;2023-01-06T13:01:56;2.43;;;1.10;;
4786;SDS011;62338;48.832;9.422;2023-01-06T13:09:28;2.57;;;1.30;;
4786;SDS011;62338;48.832;9.422;2023-01-06T13:11:38;2.00;;;1.20;;
4786;SDS011;62338;48.832;9.422;2023-01-06T13:18:33;6.57;;;3.87;;
4786;SDS011;62338;48.832;9.422;2023-01-06T13:23:16;3.97;;;1.77;;
4786;SDS011;62338;48.832;9.422;2023-01-06T13:32:56;53.63;;;31.83;;
4786;SDS011;62338;48.832;9.422;2023-01-06T13:35:30;24.83;;;12.10;;
4786;SDS011;62338;48.832;9.422;2023-01-06T13:40:15;16.87;;;10.90;;
4786;SDS011;62338;48.832;9.422;2023-01-06T13:42:25;29.53;;;18.60;;
4786;SDS011;62338;48.832;9.422;2023-01-06T13:44:36;96.43;;;53.30;;
4786;SDS011;62338;48.832;9.422;2023-01-06T13:46:39;48.87;;;28.83;;
4786;SDS011;62338;48.832;9.422;2023-01-06T13:48:43;18.90;;;10.70;;
4786;SDS011;62338;48.832;9.422;2023-01-06T13:50:47;9.40;;;5.07;;
4786;SDS011;62338;48.832;9.422;2023-01-06T13:52:50;5.90;;;3.53;;
4786;SDS011;62338;48.832;9.422;2023-01-06T13:59:22;5.27;;;3.03;;
4786;SDS011;62338;48.832;9.422;2023-01-06T14:03:35;18.80;;;9.73;;
4786;SDS011;62338;48.832;9.422;2023-01-06T14:07:40;2.50;;;1.20;;
4786;SDS011;62338;48.832;9.422;2023-01-06T14:09:49;3.53;;;1.10;;
4786;SDS011;62338;48.832;9.422;2023-01-06T14:11:51;1.50;;;0.80;;
4786;SDS011;62338;48.832;9.422;2023-01-06T14:13:57;2.63;;;1.00;;
4786;SDS011;62338;48.832;9.422;2023-01-06T14:18:26;3.90;;;1.53;;
4786;SDS011;62338;48.832;9.422;2023-01-06T14:20:35;1.90;;;0.93;;
4786;SDS011;62338;48.832;9.422;2023-01-06T14:22:38;1.83;;;1.20;;
4786;SDS011;62338;48.832;9.422;2023-01-06T14:24:42;1.80;;;0.90;;
4786;SDS011;62338;48.832;9.422;2023-01-06T14:31:43;4.93;;;1.10;;
4786;SDS011;62338;48.832;9.422;2023-01-06T14:33:45;2.27;;;1.00;;
4786;SDS011;62338;48.832;9.422;2023-01-06T14:36:15;2.17;;;1.17;;
4786;SDS011;62338;48.832;9.422;2023-01-06T14:40:27;1.87;;;1.20;;
4786;SDS011;62338;48.832;9.422;2023-01-06T14:42:32;30.23;;;20.80;;
4786;SDS011;62338;48.832;9.422;2023-01-06T14:44:40;27.63;;;15.00;;